createdAt,value
2023-01-11T00:00:33.041Z,100768.28
2023-01-11T00:03:03.082Z,100776.16
2023-01-11T00:05:30.677Z,100777.03
2023-01-11T00:07:58.867Z,100778.78
2023-01-11T00:10:26.410Z,100781.41
2023-01-11T00:12:53.808Z,100782.25
2023-01-11T00:15:21.027Z,100780.50
2023-01-11T00:17:48.381Z,100784.00
2023-01-11T00:20:15.760Z,100790.13
2023-01-11T00:22:43.457Z,100785.75
2023-01-11T00:25:10.882Z,100797.13
2023-01-11T00:27:38.405Z,100791.00
2023-01-11T00:30:06.430Z,100787.53
2023-01-11T00:32:33.932Z,100791.00
2023-01-11T00:35:01.338Z,100803.25
2023-01-11T00:37:28.862Z,100815.47
2023-01-11T00:39:56.287Z,100809.38
2023-01-11T00:42:42.732Z,100809.38
2023-01-11T00:45:30.967Z,100814.59
2023-01-11T00:47:58.625Z,100814.59
2023-01-11T00:50:28.710Z,100819.84
2023-01-11T00:52:57.191Z,100830.34
2023-01-11T00:55:25.607Z,100821.59
2023-01-11T00:57:53.560Z,100833.84
2023-01-11T01:00:22.457Z,100812.00
2023-01-11T01:02:51.439Z,100815.47
2023-01-11T01:05:19.028Z,100817.22
2023-01-11T01:07:46.753Z,100837.31
2023-01-11T01:10:16.321Z,100839.94
2023-01-11T01:13:02.709Z,100832.97
2023-01-11T01:15:30.865Z,100846.06
2023-01-11T01:17:58.426Z,100862.66
2023-01-11T01:20:26.543Z,100854.78
2023-01-11T01:22:53.972Z,100860.91
2023-01-11T01:25:21.698Z,100850.44
2023-01-11T01:27:49.439Z,100855.66
2023-01-11T01:30:17.256Z,100860.00
2023-01-11T01:32:44.680Z,100856.50
2023-01-11T01:35:12.178Z,100860.00
2023-01-11T01:37:39.588Z,100866.97
2023-01-11T01:40:07.916Z,100867.84
2023-01-11T01:42:35.385Z,100881.81
2023-01-11T01:45:07.105Z,100885.31
2023-01-11T01:47:40.819Z,100889.69
2023-01-11T01:50:16.498Z,100894.06
2023-01-11T01:52:46.338Z,100909.78
2023-01-11T01:55:21.174Z,100909.75
2023-01-11T01:57:50.091Z,100922.78
2023-01-11T02:00:18.334Z,100924.50
2023-01-11T02:02:46.386Z,100921.88
2023-01-11T02:05:16.188Z,100945.41
2023-01-11T02:07:45.601Z,100940.13
2023-01-11T02:10:19.537Z,100940.13
2023-01-11T02:13:02.547Z,100945.34
2023-01-11T02:15:30.571Z,100964.47
2023-01-11T02:17:57.971Z,100958.38
2023-01-11T02:20:45.071Z,100961.81
2023-01-11T02:23:52.646Z,100973.16
2023-01-11T02:27:00.822Z,100979.97
2023-01-11T02:29:52.226Z,100987.78
2023-01-11T02:32:56.576Z,101001.69
2023-01-11T02:35:31.385Z,101005.16
2023-01-11T02:38:11.347Z,100992.88
2023-01-11T02:40:54.351Z,101003.34
2023-01-11T02:43:52.087Z,101009.44
2023-01-11T02:46:32.703Z,101007.66
2023-01-11T02:49:21.387Z,101016.31
2023-01-11T02:52:01.774Z,101028.56
2023-01-11T02:54:31.139Z,101035.53
2023-01-11T02:57:01.523Z,101039.88
2023-01-11T02:59:33.003Z,101038.97
2023-01-11T03:02:00.676Z,101053.69
2023-01-11T03:04:28.071Z,101054.53
2023-01-11T03:07:18.899Z,101060.59
2023-01-11T03:10:23.342Z,101056.19
2023-01-11T03:13:06.094Z,101051.78
2023-01-11T03:15:36.460Z,101051.84
2023-01-11T03:18:23.316Z,101066.78
2023-01-11T03:21:00.089Z,101058.09
2023-01-11T03:23:56.125Z,101059.91
2023-01-11T03:26:57.689Z,101053.75
2023-01-11T03:29:28.159Z,101057.88
2023-01-11T03:32:18.480Z,101064.84
2023-01-11T03:34:56.405Z,101054.25
2023-01-11T03:37:48.705Z,101065.59
2023-01-11T03:40:31.941Z,101062.00
2023-01-11T03:43:11.470Z,101056.78
2023-01-11T03:45:57.531Z,101063.75
2023-01-11T03:48:33.636Z,101065.47
2023-01-11T03:51:03.437Z,101068.06
2023-01-11T03:53:35.767Z,101076.78
2023-01-11T03:56:08.356Z,101074.19
2023-01-11T03:58:36.837Z,101076.78
2023-01-11T04:01:05.026Z,101082.13
2023-01-11T04:03:32.576Z,101088.13
2023-01-11T04:06:02.466Z,101095.09
2023-01-11T04:08:31.313Z,101089.84
2023-01-11T04:10:58.893Z,101090.69
2023-01-11T04:13:26.383Z,101102.75
2023-01-11T04:15:54.413Z,101100.09
2023-01-11T04:18:21.996Z,101109.59
2023-01-11T04:20:49.657Z,101094.88
2023-01-11T04:23:17.284Z,101094.91
2023-01-11T04:25:44.767Z,101099.19
2023-01-11T04:28:12.319Z,101101.72
2023-01-11T04:30:39.778Z,101104.38
2023-01-11T04:33:07.299Z,101113.06
2023-01-11T04:35:34.668Z,101112.00
2023-01-11T04:38:02.032Z,101118.97
2023-01-11T04:40:29.318Z,101112.88
2023-01-11T04:42:56.813Z,101110.25
2023-01-11T04:45:24.198Z,101111.94
2023-01-11T04:47:56.703Z,101103.31
2023-01-11T04:50:26.440Z,101112.00
2023-01-11T04:52:54.072Z,101109.41
2023-01-11T04:55:21.775Z,101119.06
2023-01-11T04:57:49.832Z,101122.66
2023-01-11T05:00:17.820Z,101133.16
2023-01-11T05:02:45.421Z,101135.75
2023-01-11T05:05:12.838Z,101141.84
2023-01-11T05:07:41.022Z,101143.41
2023-01-11T05:10:09.167Z,101160.72
2023-01-11T05:12:36.635Z,101157.00
2023-01-11T05:15:04.476Z,101147.22
2023-01-11T05:17:31.925Z,101164.41
2023-01-11T05:19:59.445Z,101178.34
2023-01-11T05:22:26.889Z,101179.88
2023-01-11T05:24:54.446Z,101185.06
2023-01-11T05:27:21.930Z,101196.22
2023-01-11T05:29:49.405Z,101205.78
2023-01-11T05:32:16.733Z,101199.88
2023-01-11T05:34:44.072Z,101195.34
2023-01-11T05:37:11.363Z,101203.03
2023-01-11T05:39:38.796Z,101204.69
2023-01-11T05:42:06.153Z,101209.03
2023-01-11T05:44:52.560Z,101219.25
2023-01-11T05:47:19.972Z,101222.53
2023-01-11T05:49:47.324Z,101223.44
2023-01-11T05:52:14.802Z,101232.03
2023-01-11T05:54:42.072Z,101234.78
2023-01-11T05:57:11.704Z,101236.41
2023-01-11T05:59:39.111Z,101233.03
2023-01-11T06:02:06.859Z,101246.03
2023-01-11T06:04:34.392Z,101247.66
2023-01-11T06:07:01.747Z,101259.66
2023-01-11T06:09:29.040Z,101263.84
2023-01-11T06:11:56.561Z,101274.25
2023-01-11T06:14:23.894Z,101286.34
2023-01-11T06:16:51.303Z,101290.75
2023-01-11T06:19:19.434Z,101299.28
2023-01-11T06:21:47.011Z,101299.13
2023-01-11T06:24:14.525Z,101294.63
2023-01-11T06:26:42.088Z,101290.25
2023-01-11T06:29:09.482Z,101298.34
2023-01-11T06:31:37.135Z,101301.09
2023-01-11T06:34:04.691Z,101301.78
2023-01-11T06:36:32.083Z,101301.03
2023-01-11T06:38:59.437Z,101313.09
2023-01-11T06:41:28.912Z,101313.94
2023-01-11T06:43:56.303Z,101317.38
2023-01-11T06:46:23.720Z,101334.72
2023-01-11T06:48:51.096Z,101331.06
2023-01-11T06:51:18.576Z,101343.44
2023-01-11T06:53:46.592Z,101357.13
2023-01-11T06:56:15.107Z,101357.94
2023-01-11T06:58:42.389Z,101360.59
2023-01-11T07:01:10.570Z,101362.44
2023-01-11T07:03:39.314Z,101368.28
2023-01-11T07:06:06.660Z,101372.53
2023-01-11T07:08:33.865Z,101378.53
2023-01-11T07:11:01.137Z,101374.06
2023-01-11T07:13:28.422Z,101391.47
2023-01-11T07:15:57.113Z,101396.75
2023-01-11T07:18:24.316Z,101401.72
2023-01-11T07:20:52.034Z,101396.41
2023-01-11T07:23:19.757Z,101396.59
2023-01-11T07:25:48.199Z,101404.19
2023-01-11T07:29:53.683Z,101395.78
2023-01-11T07:32:21.374Z,101402.53
2023-01-11T07:34:48.935Z,101393.47
2023-01-11T07:37:28.570Z,101403.81
2023-01-11T07:39:56.857Z,101405.38
2023-01-11T07:42:42.864Z,101405.28
2023-01-11T07:45:10.869Z,101412.22
2023-01-11T07:47:38.286Z,101412.06
2023-01-11T07:50:06.500Z,101419.22
2023-01-11T07:52:34.141Z,101422.72
2023-01-11T07:55:02.884Z,101421.00
2023-01-11T07:57:31.068Z,101429.47
2023-01-11T07:59:59.615Z,101427.03
2023-01-11T08:02:28.182Z,101427.78
2023-01-11T08:04:56.437Z,101430.44
2023-01-11T08:07:24.506Z,101436.56
2023-01-11T08:09:52.697Z,101438.41
2023-01-11T08:12:38.928Z,101442.50
2023-01-11T08:15:10.775Z,101445.13
2023-01-11T08:17:38.940Z,101451.16
2023-01-11T08:20:07.251Z,101452.94
2023-01-11T08:22:35.282Z,101459.78
2023-01-11T08:25:03.134Z,101464.09
2023-01-11T08:27:31.944Z,101464.97
2023-01-11T08:30:00.100Z,101478.63
2023-01-11T08:32:30.728Z,101483.72
2023-01-11T08:34:58.152Z,101491.59
2023-01-11T08:37:25.484Z,101495.44
2023-01-11T08:39:52.668Z,101492.44
2023-01-11T08:42:20.026Z,101492.69
2023-01-11T08:44:47.239Z,101499.50
2023-01-11T08:47:14.927Z,101490.53
2023-01-11T08:49:43.540Z,101499.13
2023-01-11T08:52:14.187Z,101499.28
2023-01-11T08:54:42.203Z,101505.09
2023-01-11T08:57:10.152Z,101515.72
2023-01-11T08:59:38.005Z,101515.75
2023-01-11T09:02:06.929Z,101516.63
2023-01-11T09:04:34.653Z,101514.00
2023-01-11T09:07:02.411Z,101519.41
2023-01-11T09:09:30.830Z,101520.38
2023-01-11T09:12:00.458Z,101521.34
2023-01-11T09:14:29.087Z,101517.94
2023-01-11T09:16:56.922Z,101519.81
2023-01-11T09:19:24.468Z,101525.13
2023-01-11T09:21:52.154Z,101528.69
2023-01-11T09:24:19.900Z,101526.13
2023-01-11T09:26:47.490Z,101535.88
2023-01-11T09:29:15.031Z,101534.22
2023-01-11T09:31:42.556Z,101538.66
2023-01-11T09:34:12.764Z,101552.75
2023-01-11T09:36:40.834Z,101558.81
2023-01-11T09:39:11.963Z,101560.63
2023-01-11T09:42:00.959Z,101565.03
2023-01-11T09:44:29.947Z,101563.28
2023-01-11T09:47:15.820Z,101560.66
2023-01-11T09:49:52.330Z,101562.44
2023-01-11T09:52:29.417Z,101553.63
2023-01-11T09:54:57.707Z,101555.38
2023-01-11T09:57:31.109Z,101556.16
2023-01-11T10:00:05.228Z,101566.66
2023-01-11T10:03:03.465Z,101578.06
2023-01-11T10:05:36.924Z,101590.38
2023-01-11T10:18:22.986Z,101614.22
2023-01-11T10:19:18.439Z,101604.59
2023-01-11T10:21:55.290Z,101621.22
2023-01-11T10:24:39.103Z,101620.38
2023-01-11T10:27:17.489Z,101627.41
2023-01-11T10:29:59.363Z,101627.41
2023-01-11T10:32:54.237Z,101635.25
2023-01-11T10:35:31.413Z,101630.78
2023-01-11T10:38:19.350Z,101638.69
2023-01-11T10:41:04.657Z,101628.16
2023-01-11T10:43:44.628Z,101633.38
2023-01-11T10:46:23.869Z,101624.59
2023-01-11T10:49:03.999Z,101620.25
2023-01-11T10:51:44.489Z,101621.16
2023-01-11T10:54:24.343Z,101623.84
2023-01-11T10:57:24.288Z,101623.88
2023-01-11T11:00:13.638Z,101621.31
2023-01-11T11:03:12.693Z,101615.13
2023-01-11T11:05:53.811Z,101610.72
2023-01-11T11:08:48.914Z,101608.09
2023-01-11T11:11:27.135Z,101611.59
2023-01-11T11:14:18.627Z,101609.03
2023-01-11T11:17:25.176Z,101601.13
2023-01-11T11:19:53.398Z,101605.53
2023-01-11T11:22:21.151Z,101601.13
2023-01-11T11:25:29.702Z,101605.50
2023-01-11T11:28:05.310Z,101615.13
2023-01-11T11:30:39.218Z,101605.47
2023-01-11T11:33:27.907Z,101608.97
2023-01-11T11:36:02.285Z,101618.69
2023-01-11T11:38:32.807Z,101624.81
2023-01-11T11:41:17.120Z,101623.00
2023-01-11T11:43:47.458Z,101612.47
2023-01-11T11:46:19.548Z,101618.53
2023-01-11T11:49:12.536Z,101615.00
2023-01-11T11:51:41.360Z,101628.03
2023-01-11T11:54:19.618Z,101629.78
2023-01-11T11:56:47.797Z,101627.94
2023-01-11T11:59:19.277Z,101633.28
2023-01-11T12:01:50.113Z,101630.75
2023-01-11T12:04:20.516Z,101623.75
2023-01-11T12:07:05.134Z,101617.66
2023-01-11T12:09:34.914Z,101618.53
2023-01-11T12:12:04.361Z,101617.63
2023-01-11T12:14:35.443Z,101612.25
2023-01-11T12:17:25.616Z,101612.97
2023-01-11T12:19:53.179Z,101611.19
2023-01-11T12:22:29.149Z,101605.06
2023-01-11T12:25:14.909Z,101590.25
2023-01-11T12:27:50.972Z,101590.31
2023-01-11T12:31:14.113Z,101585.06
2023-01-11T12:33:42.960Z,101588.44
2023-01-11T12:36:31.133Z,101593.53
2023-01-11T12:39:27.013Z,101587.44
2023-01-11T12:42:12.727Z,101590.94
2023-01-11T12:45:04.867Z,101603.19
2023-01-11T12:48:12.814Z,101609.41
2023-01-11T12:50:55.760Z,101613.78
2023-01-11T12:53:49.336Z,101610.16
2023-01-11T12:56:49.568Z,101609.28
2023-01-11T12:59:44.565Z,101618.94
2023-01-11T13:02:33.730Z,101623.28
2023-01-11T13:05:16.939Z,101624.06
2023-01-11T13:07:58.495Z,101640.66
2023-01-11T13:10:47.475Z,101618.72
2023-01-11T13:13:50.428Z,101616.06
2023-01-11T13:16:34.401Z,101602.03
2023-01-11T13:19:19.757Z,101604.56
2023-01-11T13:21:53.579Z,101603.72
2023-01-11T13:24:27.377Z,101608.97
2023-01-11T13:27:00.664Z,101590.69
2023-01-11T13:29:30.002Z,101588.84
2023-01-11T13:32:04.392Z,101580.16
2023-01-11T13:34:47.827Z,101572.34
2023-01-11T13:37:26.065Z,101579.19
2023-01-11T13:40:15.614Z,101581.84
2023-01-11T13:42:54.719Z,101585.44
2023-01-11T13:45:32.249Z,101581.13
2023-01-11T13:48:29.122Z,101578.50
2023-01-11T13:51:27.630Z,101583.69
2023-01-11T13:54:04.056Z,101584.56
2023-01-11T13:56:36.463Z,101580.16
2023-01-11T13:59:31.204Z,101587.97
2023-01-11T14:02:21.602Z,101591.47
2023-01-11T14:05:15.843Z,101590.59
2023-01-11T14:07:49.198Z,101597.50
2023-01-11T14:10:28.460Z,101596.59
2023-01-11T14:13:50.993Z,101596.56
2023-01-11T14:16:26.471Z,101600.88
2023-01-11T14:19:16.929Z,101581.56
2023-01-11T14:21:55.763Z,101585.78
2023-01-11T14:24:25.112Z,101589.28
2023-01-11T14:27:30.567Z,101589.19
2023-01-11T14:30:17.216Z,101582.22
2023-01-11T14:32:59.463Z,101584.78
2023-01-11T14:35:43.388Z,101589.97
2023-01-11T14:38:32.119Z,101591.69
2023-01-11T14:41:18.127Z,101594.22
2023-01-11T14:44:03.877Z,101590.75
2023-01-11T14:46:40.602Z,101597.63
2023-01-11T14:49:23.233Z,101601.03
2023-01-11T14:51:59.903Z,101601.97
2023-01-11T14:54:30.369Z,101606.22
2023-01-11T14:56:59.736Z,101615.84
2023-01-11T14:59:30.258Z,101607.84
2023-01-11T15:02:03.996Z,101613.16
2023-01-11T15:04:56.075Z,101620.09
2023-01-11T15:07:29.671Z,101626.94
2023-01-11T15:09:59.108Z,101627.81
2023-01-11T15:12:40.325Z,101630.44
2023-01-11T15:15:17.300Z,101629.59
2023-01-11T15:18:03.866Z,101625.25
2023-01-11T15:20:33.733Z,101638.38
2023-01-11T15:23:05.699Z,101633.16
2023-01-11T15:25:34.883Z,101642.81
2023-01-11T15:28:24.560Z,101640.06
2023-01-11T15:30:53.087Z,101639.97
2023-01-11T15:33:20.852Z,101649.44
2023-01-11T15:35:57.467Z,101642.19
2023-01-11T15:38:34.516Z,101646.66
2023-01-11T15:41:23.224Z,101646.66
2023-01-11T15:44:24.471Z,101643.78
2023-01-11T15:47:21.104Z,101629.63
2023-01-11T15:50:36.985Z,101623.56
2023-01-11T15:53:23.322Z,101618.28
2023-01-11T15:56:15.347Z,101600.63
2023-01-11T15:59:04.481Z,101604.97
2023-01-11T16:01:44.714Z,101607.53
2023-01-11T16:04:26.859Z,101615.53
2023-01-11T16:06:59.146Z,101605.94
2023-01-11T16:10:00.422Z,101621.63
2023-01-11T16:12:33.732Z,101631.09
2023-01-11T16:15:11.914Z,101634.53
2023-01-11T16:17:44.623Z,101636.41
2023-01-11T16:20:21.067Z,101640.63
2023-01-11T16:23:03.757Z,101632.78
2023-01-11T16:25:38.861Z,101634.56
2023-01-11T16:28:08.362Z,101629.31
2023-01-11T16:30:35.839Z,101632.69
2023-01-11T16:33:22.373Z,101635.38
2023-01-11T16:36:02.389Z,101631.78
2023-01-11T16:38:31.346Z,101631.66
2023-01-11T16:40:59.807Z,101615.84
2023-01-11T16:43:30.737Z,101616.66
2023-01-11T16:45:58.520Z,101622.88
2023-01-11T16:48:30.474Z,101623.88
2023-01-11T16:51:05.830Z,101636.75
2023-01-11T16:53:35.436Z,101632.41
2023-01-11T16:56:13.583Z,101650.66
2023-01-11T16:58:41.217Z,101641.94
2023-01-11T17:01:10.168Z,101641.84
2023-01-11T17:03:46.999Z,101641.97
2023-01-11T17:06:20.594Z,101639.31
2023-01-11T17:08:53.283Z,101647.19
2023-01-11T17:11:41.727Z,101647.19
2023-01-11T17:14:31.389Z,101648.84
2023-01-11T17:17:03.547Z,101652.34
2023-01-11T17:19:34.524Z,101655.94
2023-01-11T17:22:07.545Z,101654.22
2023-01-11T17:24:48.044Z,101649.22
2023-01-11T17:27:21.170Z,101651.75
2023-01-11T17:29:52.248Z,101663.19
2023-01-11T17:32:41.189Z,101671.84
2023-01-11T17:35:17.310Z,101691.72
2023-01-11T17:37:46.840Z,101682.84
2023-01-11T17:40:27.529Z,101688.84
2023-01-11T17:43:18.546Z,101688.91
2023-01-11T17:45:51.900Z,101690.72
2023-01-11T17:48:20.554Z,101693.22
2023-01-11T17:50:49.252Z,101692.38
2023-01-11T17:53:23.579Z,101695.69
2023-01-11T17:55:56.947Z,101694.75
2023-01-11T17:58:29.730Z,101699.97
2023-01-11T18:01:13.827Z,101693.91
2023-01-11T18:03:41.539Z,101691.91
2023-01-11T18:06:37.115Z,101689.91
2023-01-11T18:09:08.029Z,101679.75
2023-01-11T18:11:41.111Z,101680.72
2023-01-11T18:14:19.190Z,101683.13
2023-01-11T18:17:07.081Z,101684.84
2023-01-11T18:19:40.194Z,101696.31
2023-01-11T18:22:22.795Z,101695.97
2023-01-11T18:24:54.787Z,101692.56
2023-01-11T18:27:35.777Z,101691.66
2023-01-11T18:30:08.637Z,101683.03
2023-01-11T18:32:42.674Z,101688.00
2023-01-11T18:35:18.804Z,101686.47
2023-01-11T18:37:47.891Z,101690.88
2023-01-11T18:40:17.994Z,101686.66
2023-01-11T18:42:51.487Z,101689.19
2023-01-11T18:45:20.271Z,101689.22
2023-01-11T18:47:47.742Z,101681.31
2023-01-11T18:50:15.248Z,101688.06
2023-01-11T18:52:42.505Z,101686.53
2023-01-11T18:55:12.116Z,101687.34
2023-01-11T18:57:39.931Z,101692.34
2023-01-11T19:00:08.208Z,101683.69
2023-01-11T19:02:43.792Z,101684.44
2023-01-11T19:05:13.255Z,101681.06
2023-01-11T19:07:41.095Z,101677.56
2023-01-11T19:10:10.907Z,101680.34
2023-01-11T19:12:38.490Z,101679.56
2023-01-11T19:15:06.415Z,101685.50
2023-01-11T19:17:34.056Z,101683.88
2023-01-11T19:20:01.742Z,101678.72
2023-01-11T19:22:29.125Z,101671.88
2023-01-11T19:25:11.744Z,101671.03
2023-01-11T19:27:39.889Z,101655.91
2023-01-11T19:30:08.153Z,101657.84
2023-01-11T19:32:35.625Z,101647.38
2023-01-11T19:35:03.062Z,101649.19
2023-01-11T19:37:30.510Z,101663.00
2023-01-11T19:39:57.835Z,101668.25
2023-01-11T19:42:25.643Z,101668.38
2023-01-11T19:44:53.128Z,101658.75
2023-01-11T19:47:20.727Z,101662.22
2023-01-11T19:49:48.259Z,101653.31
2023-01-11T19:52:19.381Z,101644.53
2023-01-11T19:54:47.886Z,101647.13
2023-01-11T19:57:20.790Z,101637.47
2023-01-11T19:59:49.711Z,101635.56
2023-01-11T20:02:20.475Z,101635.31
2023-01-11T20:04:48.575Z,101625.06
2023-01-11T20:07:17.044Z,101624.97
2023-01-11T20:09:44.611Z,101642.50
2023-01-11T20:12:15.759Z,101625.00
2023-01-11T20:14:44.630Z,101627.53
2023-01-11T20:17:13.312Z,101610.09
2023-01-11T20:19:41.503Z,101616.13
2023-01-11T20:22:09.096Z,101602.13
2023-01-11T20:24:36.543Z,101592.56
2023-01-11T20:27:04.005Z,101611.81
2023-01-11T20:29:31.530Z,101601.28
2023-01-11T20:32:18.678Z,101603.88
2023-01-11T20:34:46.497Z,101603.00
2023-01-11T20:37:15.062Z,101614.25
2023-01-11T20:39:42.786Z,101616.06
2023-01-11T20:42:12.679Z,101627.09
2023-01-11T20:44:40.834Z,101632.50
2023-01-11T20:47:08.354Z,101633.41
2023-01-11T20:49:36.061Z,101629.97
2023-01-11T20:52:03.925Z,101623.84
2023-01-11T20:54:31.574Z,101619.63
2023-01-11T20:57:02.380Z,101617.88
2023-01-11T20:59:32.410Z,101606.53
2023-01-11T21:01:59.941Z,101600.44
2023-01-11T21:04:27.513Z,101613.47
2023-01-11T21:06:55.914Z,101618.72
2023-01-11T21:09:23.386Z,101634.31
2023-01-11T21:11:54.156Z,101638.69
2023-01-11T21:14:22.626Z,101624.72
2023-01-11T21:16:50.126Z,101618.56
2023-01-11T21:19:17.939Z,101615.91
2023-01-11T21:21:45.454Z,101608.94
2023-01-11T21:24:15.546Z,101610.72
2023-01-11T21:26:45.818Z,101596.88
2023-01-11T21:29:13.893Z,101595.13
2023-01-11T21:31:42.013Z,101582.13
2023-01-11T21:34:12.033Z,101585.53
2023-01-11T21:36:40.311Z,101583.78
2023-01-11T21:39:09.414Z,101600.34
2023-01-11T21:41:55.416Z,101605.66
2023-01-11T21:44:27.411Z,101612.56
2023-01-11T21:46:55.809Z,101636.06
2023-01-11T21:49:24.407Z,101625.75
2023-01-11T21:51:52.856Z,101631.09
2023-01-11T21:54:20.441Z,101633.72
2023-01-11T21:56:49.499Z,101619.75
2023-01-11T21:59:17.626Z,101619.75
2023-01-11T22:01:46.557Z,101625.06
2023-01-11T22:04:16.134Z,101620.66
2023-01-11T22:06:51.782Z,101624.19
2023-01-11T22:09:20.499Z,101615.50
2023-01-11T22:11:48.190Z,101614.66
2023-01-11T22:14:17.985Z,101615.53
2023-01-11T22:16:45.628Z,101607.75
2023-01-11T22:19:13.936Z,101604.31
2023-01-11T22:21:41.541Z,101598.28
2023-01-11T22:24:11.975Z,101602.72
2023-01-11T22:26:40.335Z,101601.88
2023-01-11T22:29:12.405Z,101593.19
2023-01-11T22:31:49.835Z,101593.16
2023-01-11T22:34:18.355Z,101590.59
2023-01-11T22:36:46.319Z,101593.34
2023-01-11T22:39:15.551Z,101591.69
2023-01-11T22:41:45.728Z,101589.09
2023-01-11T22:44:14.316Z,101592.63
2023-01-11T22:46:42.555Z,101604.78
2023-01-11T22:49:11.133Z,101610.94
2023-01-11T22:51:40.004Z,101602.09
2023-01-11T22:54:07.737Z,101603.16
2023-01-11T22:56:35.196Z,101587.38
2023-01-11T22:59:03.078Z,101591.72
2023-01-11T23:01:35.307Z,101589.88
2023-01-11T23:04:04.214Z,101580.25
2023-01-11T23:06:37.435Z,101580.22
2023-01-11T23:09:07.907Z,101571.50
2023-01-11T23:11:56.956Z,101568.88
2023-01-11T23:14:30.801Z,101561.94
2023-01-11T23:17:19.572Z,101561.06
2023-01-11T23:19:47.271Z,101557.63
2023-01-11T23:22:16.919Z,101543.63
2023-01-11T23:24:44.508Z,101548.84
2023-01-11T23:27:12.131Z,101540.88
2023-01-11T23:29:39.610Z,101538.31
2023-01-11T23:32:07.240Z,101551.34
2023-01-11T23:34:34.933Z,101550.44
2023-01-11T23:37:02.487Z,101534.78
2023-01-11T23:39:30.879Z,101552.13
2023-01-11T23:42:16.897Z,101546.03
2023-01-11T23:44:46.991Z,101538.13
2023-01-11T23:47:25.189Z,101527.63
2023-01-11T23:49:55.194Z,101538.03
2023-01-11T23:52:28.093Z,101521.47
2023-01-11T23:54:55.750Z,101517.91
2023-01-11T23:57:25.015Z,101514.34
2023-01-11T23:59:52.572Z,101504.69
